createdAt,value
2019-05-30T00:01:08.307Z,56.98
2019-05-30T00:06:09.711Z,56.95
2019-05-30T00:11:11.538Z,57.07
2019-05-30T00:16:13.048Z,57.35
2019-05-30T00:21:14.543Z,57.74
2019-05-30T00:26:15.907Z,57.62
2019-05-30T00:31:17.428Z,58.41
2019-05-30T00:36:18.839Z,58.03
2019-05-30T00:41:20.220Z,57.56
2019-05-30T00:46:21.771Z,57.95
2019-05-30T00:51:23.276Z,58.08
2019-05-30T00:56:24.830Z,58.70
2019-05-30T01:01:26.361Z,58.64
2019-05-30T01:06:27.866Z,59.12
2019-05-30T01:11:29.361Z,58.81
2019-05-30T01:16:30.892Z,59.32
2019-05-30T01:21:32.334Z,60.80
2019-05-30T01:26:33.853Z,61.46
2019-05-30T01:31:35.389Z,61.85
2019-05-30T01:36:36.871Z,62.67
2019-05-30T01:41:38.622Z,62.42
2019-05-30T01:46:40.039Z,63.48
2019-05-30T01:51:41.557Z,63.56
2019-05-30T01:56:43.102Z,64.34
2019-05-30T02:01:44.653Z,64.24
2019-05-30T02:06:46.160Z,65.05
2019-05-30T02:11:47.568Z,65.02
2019-05-30T02:16:49.092Z,65.79
2019-05-30T02:21:50.643Z,66.50
2019-05-30T02:26:51.968Z,67.73
2019-05-30T02:31:53.512Z,68.52
2019-05-30T02:36:55.025Z,68.51
2019-05-30T02:41:56.517Z,70.89
2019-05-30T02:46:58.042Z,68.62
2019-05-30T02:51:59.583Z,69.13
2019-05-30T02:57:01.522Z,68.36
2019-05-30T03:02:07.345Z,68.62
2019-05-30T03:07:08.481Z,67.98
2019-05-30T03:12:11.453Z,68.18
2019-05-30T03:17:14.653Z,68.21
2019-05-30T03:22:16.435Z,68.07
2019-05-30T03:27:17.953Z,68.19
2019-05-30T03:33:00.858Z,68.76
2019-05-30T03:37:29.373Z,69.10
2019-05-30T03:42:26.411Z,69.59
2019-05-30T03:47:27.907Z,69.36
2019-05-30T03:52:29.429Z,69.31
2019-05-30T03:57:33.357Z,69.81
2019-05-30T04:02:59.256Z,69.28
2019-05-30T04:08:00.508Z,69.40
2019-05-30T04:13:15.258Z,69.58
2019-05-30T04:18:17.152Z,70.19
2019-05-30T04:23:19.484Z,69.52
2019-05-30T04:28:21.249Z,70.11
2019-05-30T04:33:32.715Z,71.39
2019-05-30T04:38:26.242Z,70.12
2019-05-30T04:43:27.732Z,71.35
2019-05-30T04:48:29.242Z,70.19
2019-05-30T04:53:30.742Z,71.06
2019-05-30T04:58:32.447Z,70.33
2019-05-30T05:03:44.958Z,70.07
2019-05-30T05:08:37.439Z,70.19
2019-05-30T05:13:39.340Z,71.08
2019-05-30T05:18:40.883Z,71.15
2019-05-30T05:23:42.439Z,70.58
2019-05-30T05:28:44.055Z,70.03
2019-05-30T05:33:56.153Z,70.45
2019-05-30T05:38:49.060Z,70.72
2019-05-30T05:43:50.554Z,70.64
2019-05-30T05:48:52.082Z,70.41
2019-05-30T05:53:53.734Z,72.30
2019-05-30T05:58:55.213Z,71.71
2019-05-30T06:04:11.962Z,74.04
2019-05-30T06:09:00.389Z,72.00
2019-05-30T06:14:01.953Z,71.87
2019-05-30T06:19:03.434Z,73.29
2019-05-30T06:24:04.998Z,72.58
2019-05-30T06:29:06.792Z,72.94
2019-05-30T06:34:08.404Z,72.60
2019-05-30T06:39:09.935Z,72.07
2019-05-30T06:44:11.594Z,72.96
2019-05-30T06:49:13.226Z,72.80
2019-05-30T06:54:14.649Z,73.01
2019-05-30T06:59:16.211Z,73.86
2019-05-30T07:04:18.300Z,74.09
2019-05-30T07:09:20.141Z,74.54
2019-05-30T07:14:23.035Z,74.49
2019-05-30T07:19:25.325Z,73.02
2019-05-30T07:24:27.752Z,72.58
2019-05-30T07:29:29.981Z,72.91
2019-05-30T07:34:32.622Z,73.51
2019-05-30T07:39:37.315Z,74.11
2019-05-30T07:44:37.695Z,75.83
2019-05-30T07:49:39.221Z,73.54
2019-05-30T07:54:40.816Z,74.49
2019-05-30T07:59:42.359Z,75.58
2019-05-30T08:04:46.903Z,75.97
2019-05-30T08:09:47.585Z,75.47
2019-05-30T08:14:49.111Z,75.04
2019-05-30T08:19:50.629Z,74.34
2019-05-30T08:24:51.982Z,74.38
2019-05-30T08:29:53.481Z,73.99
2019-05-30T08:34:55.014Z,73.42
2019-05-30T08:39:56.566Z,73.69
2019-05-30T08:44:58.130Z,73.88
2019-05-30T08:49:59.647Z,74.74
2019-05-30T08:55:01.367Z,74.20
2019-05-30T09:00:03.977Z,73.87
2019-05-30T09:05:07.015Z,75.00
2019-05-30T09:10:08.842Z,74.46
2019-05-30T09:15:10.893Z,75.54
2019-05-30T09:20:12.400Z,76.55
2019-05-30T09:25:13.988Z,74.40
2019-05-30T09:30:15.507Z,75.31
2019-05-30T09:35:17.129Z,72.81
2019-05-30T09:40:19.327Z,71.28
2019-05-30T09:45:21.072Z,69.46
2019-05-30T09:50:22.481Z,68.33
2019-05-30T09:55:24.051Z,67.91
2019-05-30T10:00:25.552Z,67.56
2019-05-30T10:05:27.105Z,67.99
2019-05-30T10:10:28.604Z,66.98
2019-05-30T10:15:30.027Z,67.15
2019-05-30T10:20:31.676Z,67.97
2019-05-30T10:25:33.245Z,68.98
2019-05-30T10:30:34.798Z,69.23
2019-05-30T10:35:36.439Z,68.60
2019-05-30T10:40:38.034Z,67.60
2019-05-30T10:45:39.565Z,66.50
2019-05-30T10:50:41.108Z,65.85
2019-05-30T10:55:42.513Z,65.24
2019-05-30T11:00:48.452Z,65.37
2019-05-30T11:06:13.680Z,66.41
2019-05-30T11:11:15.272Z,65.92
2019-05-30T11:16:16.780Z,66.76
2019-05-30T11:21:18.289Z,67.84
2019-05-30T11:26:19.773Z,67.88
2019-05-30T11:31:21.189Z,66.59
2019-05-30T11:36:22.706Z,67.04
2019-05-30T11:41:24.274Z,66.38
2019-05-30T11:46:25.815Z,64.30
2019-05-30T11:51:27.325Z,63.13
2019-05-30T11:56:28.821Z,62.86
2019-05-30T12:01:30.344Z,62.32
2019-05-30T12:06:31.850Z,60.60
2019-05-30T12:11:33.343Z,59.96
2019-05-30T12:16:34.969Z,60.42
2019-05-30T12:21:36.430Z,58.97
2019-05-30T12:26:37.937Z,58.07
2019-05-30T12:31:39.423Z,58.65
2019-05-30T12:36:41.002Z,57.82
2019-05-30T12:41:42.539Z,57.50
2019-05-30T12:46:44.134Z,57.61
2019-05-30T12:51:45.665Z,57.42
2019-05-30T12:56:47.187Z,56.13
2019-05-30T13:01:48.710Z,54.48
2019-05-30T13:06:53.851Z,54.69
2019-05-30T13:11:54.270Z,53.94
2019-05-30T13:16:55.914Z,53.61
2019-05-30T13:21:57.373Z,54.03
2019-05-30T13:26:59.656Z,54.65
2019-05-30T13:32:02.533Z,53.71
2019-05-30T13:37:05.074Z,52.65
2019-05-30T13:42:07.869Z,52.75
2019-05-30T13:47:09.467Z,51.33
2019-05-30T13:52:10.962Z,50.41
2019-05-30T13:57:12.586Z,50.54
2019-05-30T14:02:14.134Z,49.82
2019-05-30T14:07:15.659Z,49.90
2019-05-30T14:12:17.148Z,49.87
2019-05-30T14:17:18.593Z,49.85
2019-05-30T14:22:20.100Z,49.30
2019-05-30T14:27:21.788Z,49.55
2019-05-30T14:32:23.440Z,50.46
2019-05-30T14:37:24.951Z,48.69
2019-05-30T14:42:26.531Z,49.55
2019-05-30T14:47:28.025Z,49.10
2019-05-30T14:52:29.898Z,49.16
2019-05-30T14:57:31.473Z,49.25
2019-05-30T15:02:33.104Z,48.57
2019-05-30T15:07:34.623Z,49.28
2019-05-30T15:12:36.074Z,47.74
2019-05-30T15:17:37.599Z,47.74
2019-05-30T15:22:39.093Z,47.19
2019-05-30T15:27:40.608Z,48.10
2019-05-30T15:32:42.236Z,47.29
2019-05-30T15:37:43.662Z,47.29
2019-05-30T15:42:45.291Z,46.89
2019-05-30T15:47:46.681Z,48.75
2019-05-30T15:52:48.568Z,48.51
2019-05-30T15:57:50.018Z,48.91
2019-05-30T16:02:51.544Z,48.13
2019-05-30T16:07:53.153Z,48.44
2019-05-30T16:12:54.796Z,48.32
2019-05-30T16:17:56.390Z,48.71
2019-05-30T16:22:57.981Z,49.68
2019-05-30T16:27:59.391Z,49.08
2019-05-30T16:33:00.902Z,49.04
2019-05-30T16:38:02.430Z,49.04
2019-05-30T16:43:03.871Z,48.45
2019-05-30T16:48:05.340Z,48.33
2019-05-30T16:53:06.873Z,47.20
2019-05-30T16:58:08.493Z,48.29
2019-05-30T17:03:09.948Z,48.29
2019-05-30T17:08:11.612Z,47.18
2019-05-30T17:13:12.864Z,47.00
2019-05-30T17:18:14.395Z,48.08
2019-05-30T17:23:16.743Z,46.60
2019-05-30T17:28:18.388Z,46.84
2019-05-30T17:33:21.762Z,45.09
2019-05-30T17:38:24.540Z,46.62
2019-05-30T17:43:27.141Z,47.93
2019-05-30T17:48:29.777Z,47.93
2019-05-30T17:53:31.597Z,49.12
2019-05-30T17:58:33.085Z,49.91
2019-05-30T18:03:34.628Z,50.31
2019-05-30T18:08:36.207Z,50.48
2019-05-30T18:13:37.760Z,51.16
2019-05-30T18:18:39.286Z,51.04
2019-05-30T18:23:40.858Z,51.12
2019-05-30T18:28:42.253Z,51.46
2019-05-30T18:33:44.232Z,51.38
2019-05-30T18:38:45.798Z,51.86
2019-05-30T18:43:47.425Z,52.16
2019-05-30T18:48:49.064Z,52.57
2019-05-30T18:53:50.744Z,52.74
2019-05-30T18:58:52.353Z,52.94
2019-05-30T19:03:53.952Z,53.02
2019-05-30T19:08:56.546Z,53.27
2019-05-30T19:13:58.090Z,53.53
2019-05-30T19:18:59.629Z,53.91
2019-05-30T19:24:01.122Z,54.23
2019-05-30T19:29:03.684Z,54.41
2019-05-30T19:34:05.296Z,54.70
2019-05-30T19:39:06.934Z,54.82
2019-05-30T19:44:08.439Z,55.03
2019-05-30T19:49:09.758Z,55.02
2019-05-30T19:54:11.278Z,55.42
2019-05-30T19:59:12.800Z,55.81
2019-05-30T20:04:14.323Z,55.91
2019-05-30T20:09:15.864Z,56.74
2019-05-30T20:14:17.367Z,56.66
2019-05-30T20:19:18.986Z,56.82
2019-05-30T20:24:20.383Z,57.04
2019-05-30T20:29:22.098Z,57.46
2019-05-30T20:34:23.586Z,57.49
2019-05-30T20:39:25.097Z,58.15
2019-05-30T20:44:26.580Z,58.48
2019-05-30T20:49:28.439Z,58.40
2019-05-30T20:54:29.967Z,58.45
2019-05-30T20:59:31.514Z,58.17
2019-05-30T21:04:32.974Z,57.82
2019-05-30T21:09:35.859Z,57.65
2019-05-30T21:14:37.577Z,57.47
2019-05-30T21:19:39.805Z,57.60
2019-05-30T21:24:42.668Z,57.86
2019-05-30T21:29:45.745Z,57.76
2019-05-30T21:34:48.588Z,57.92
2019-05-30T21:39:50.408Z,57.99
2019-05-30T21:44:52.856Z,57.79
2019-05-30T21:49:54.575Z,58.08
2019-05-30T21:54:55.908Z,58.12
2019-05-30T21:59:57.377Z,58.35
2019-05-30T22:04:58.839Z,58.74
2019-05-30T22:10:00.378Z,58.51
2019-05-30T22:15:01.899Z,58.93
2019-05-30T22:20:04.162Z,58.72
2019-05-30T22:25:05.700Z,58.96
2019-05-30T22:30:07.538Z,59.10
2019-05-30T22:35:09.016Z,58.86
2019-05-30T22:40:10.557Z,59.27
2019-05-30T22:45:12.044Z,59.10
2019-05-30T22:50:13.494Z,59.01
2019-05-30T22:55:15.118Z,58.96
2019-05-30T23:00:16.596Z,59.50
2019-05-30T23:05:18.116Z,59.29
2019-05-30T23:10:19.639Z,59.07
2019-05-30T23:15:21.064Z,58.91
2019-05-30T23:20:22.553Z,58.94
2019-05-30T23:25:24.097Z,58.84
2019-05-30T23:30:25.737Z,58.93
2019-05-30T23:35:27.344Z,59.21
2019-05-30T23:40:28.879Z,59.29
2019-05-30T23:45:30.831Z,59.79
2019-05-30T23:50:32.471Z,59.47
2019-05-30T23:55:34.284Z,59.87
